sensor_id;sensor_type;location;lat;lon;timestamp;pressure;altitude;pressure_sealevel;temperature;humidity
38620;BME280;24376;51.986;4.662;2022-12-15T00:02:18;101790.53;;;-4.82;100.00
38620;BME280;24376;51.986;4.662;2022-12-15T00:05:02;101791.91;;;-4.76;100.00
38620;BME280;24376;51.986;4.662;2022-12-15T00:07:46;101791.75;;;-4.78;100.00
38620;BME280;24376;51.986;4.662;2022-12-15T00:10:30;101799.84;;;-4.82;100.00
38620;BME280;24376;51.986;4.662;2022-12-15T00:13:14;101812.97;;;-4.79;100.00
38620;BME280;24376;51.986;4.662;2022-12-15T00:15:58;101816.56;;;-4.77;100.00
38620;BME280;24376;51.986;4.662;2022-12-15T00:18:42;101826.16;;;-4.83;100.00
38620;BME280;24376;51.986;4.662;2022-12-15T00:21:26;101827.22;;;-4.81;100.00
38620;BME280;24376;51.986;4.662;2022-12-15T00:24:09;101840.16;;;-4.79;100.00
38620;BME280;24376;51.986;4.662;2022-12-15T00:26:53;101850.31;;;-4.88;100.00
38620;BME280;24376;51.986;4.662;2022-12-15T00:29:37;101855.13;;;-4.91;100.00
38620;BME280;24376;51.986;4.662;2022-12-15T00:32:21;101855.69;;;-4.94;100.00
38620;BME280;24376;51.986;4.662;2022-12-15T00:35:05;101860.66;;;-4.95;100.00
38620;BME280;24376;51.986;4.662;2022-12-15T00:37:49;101855.66;;;-5.02;100.00
38620;BME280;24376;51.986;4.662;2022-12-15T00:40:33;101853.53;;;-5.06;100.00
38620;BME280;24376;51.986;4.662;2022-12-15T00:42:58;101853.53;;;-5.06;100.00
38620;BME280;24376;51.986;4.662;2022-12-15T00:45:23;101866.28;;;-5.06;100.00
38620;BME280;24376;51.986;4.662;2022-12-15T00:48:09;101865.53;;;-5.05;100.00
38620;BME280;24376;51.986;4.662;2022-12-15T00:50:34;101865.53;;;-5.05;100.00
38620;BME280;24376;51.986;4.662;2022-12-15T00:53:20;101867.03;;;-5.07;100.00
38620;BME280;24376;51.986;4.662;2022-12-15T00:56:04;101880.13;;;-5.04;100.00
38620;BME280;24376;51.986;4.662;2022-12-15T00:58:48;101886.31;;;-5.02;100.00
38620;BME280;24376;51.986;4.662;2022-12-15T01:01:32;101885.22;;;-5.04;100.00
38620;BME280;24376;51.986;4.662;2022-12-15T01:04:16;101886.16;;;-5.04;100.00
38620;BME280;24376;51.986;4.662;2022-12-15T01:07:00;101890.56;;;-4.94;100.00
38620;BME280;24376;51.986;4.662;2022-12-15T01:09:44;101892.63;;;-4.99;100.00
38620;BME280;24376;51.986;4.662;2022-12-15T01:12:27;101899.84;;;-5.03;100.00
38620;BME280;24376;51.986;4.662;2022-12-15T01:15:11;101904.50;;;-4.99;100.00
38620;BME280;24376;51.986;4.662;2022-12-15T01:17:55;101906.00;;;-5.01;100.00
38620;BME280;24376;51.986;4.662;2022-12-15T01:20:39;101922.81;;;-4.79;100.00
38620;BME280;24376;51.986;4.662;2022-12-15T01:23:04;101935.19;;;-4.75;100.00
38620;BME280;24376;51.986;4.662;2022-12-15T01:25:29;101940.19;;;-4.59;100.00
38620;BME280;24376;51.986;4.662;2022-12-15T01:27:55;101948.56;;;-4.44;100.00
38620;BME280;24376;51.986;4.662;2022-12-15T01:30:21;101951.91;;;-4.37;100.00
38620;BME280;24376;51.986;4.662;2022-12-15T01:32:47;101949.22;;;-4.30;100.00
38620;BME280;24376;51.986;4.662;2022-12-15T01:35:12;101950.59;;;-4.24;100.00
38620;BME280;24376;51.986;4.662;2022-12-15T01:37:38;101945.66;;;-4.23;100.00
38620;BME280;24376;51.986;4.662;2022-12-15T01:40:03;101941.72;;;-4.28;100.00
38620;BME280;24376;51.986;4.662;2022-12-15T01:42:47;101940.78;;;-4.37;100.00
38620;BME280;24376;51.986;4.662;2022-12-15T01:47:47;101934.53;;;-4.48;100.00
38620;BME280;24376;51.986;4.662;2022-12-15T01:50:12;101943.25;;;-4.55;100.00
38620;BME280;24376;51.986;4.662;2022-12-15T01:52:38;101935.28;;;-4.58;100.00
38620;BME280;24376;51.986;4.662;2022-12-15T01:55:03;101932.38;;;-4.61;100.00
38620;BME280;24376;51.986;4.662;2022-12-15T01:57:29;101936.75;;;-4.60;100.00
38620;BME280;24376;51.986;4.662;2022-12-15T01:59:57;101948.47;;;-4.62;100.00
38620;BME280;24376;51.986;4.662;2022-12-15T02:02:26;101946.19;;;-4.67;100.00
38620;BME280;24376;51.986;4.662;2022-12-15T02:04:52;101936.53;;;-4.70;100.00
38620;BME280;24376;51.986;4.662;2022-12-15T02:07:20;101947.75;;;-4.76;100.00
38620;BME280;24376;51.986;4.662;2022-12-15T02:09:46;101945.22;;;-4.76;100.00
38620;BME280;24376;51.986;4.662;2022-12-15T02:28:14;101934.72;;;-4.95;100.00
38620;BME280;24376;51.986;4.662;2022-12-15T02:31:00;101934.72;;;-4.95;100.00
38620;BME280;24376;51.986;4.662;2022-12-15T02:33:51;101936.03;;;-4.99;100.00
38620;BME280;24376;51.986;4.662;2022-12-15T02:36:26;101929.47;;;-4.97;100.00
38620;BME280;24376;51.986;4.662;2022-12-15T02:38:52;101931.69;;;-5.00;100.00
38620;BME280;24376;51.986;4.662;2022-12-15T02:44:23;101936.31;;;-5.04;100.00
38620;BME280;24376;51.986;4.662;2022-12-15T02:52:21;101933.09;;;-5.11;100.00
38620;BME280;24376;51.986;4.662;2022-12-15T03:00:02;101975.88;;;-4.76;100.00
38620;BME280;24376;51.986;4.662;2022-12-15T03:02:29;101989.09;;;-4.56;100.00
38620;BME280;24376;51.986;4.662;2022-12-15T03:04:56;101992.78;;;-4.45;100.00
38620;BME280;24376;51.986;4.662;2022-12-15T03:07:22;102006.72;;;-4.50;100.00
38620;BME280;24376;51.986;4.662;2022-12-15T03:09:47;101995.22;;;-4.63;100.00
38620;BME280;24376;51.986;4.662;2022-12-15T03:12:12;101989.88;;;-4.73;100.00
38620;BME280;24376;51.986;4.662;2022-12-15T03:14:38;101988.00;;;-4.83;100.00
38620;BME280;24376;51.986;4.662;2022-12-15T03:17:03;101982.91;;;-4.83;100.00
38620;BME280;24376;51.986;4.662;2022-12-15T03:19:31;101984.53;;;-4.83;100.00
38620;BME280;24376;51.986;4.662;2022-12-15T03:21:56;101977.97;;;-4.81;100.00
38620;BME280;24376;51.986;4.662;2022-12-15T03:24:21;101978.03;;;-4.88;100.00
38620;BME280;24376;51.986;4.662;2022-12-15T03:26:46;101983.75;;;-4.91;100.00
38620;BME280;24376;51.986;4.662;2022-12-15T03:29:14;101987.63;;;-4.94;100.00
38620;BME280;24376;51.986;4.662;2022-12-15T03:31:39;101987.06;;;-4.92;100.00
38620;BME280;24376;51.986;4.662;2022-12-15T03:34:05;101985.81;;;-4.95;100.00
38620;BME280;24376;51.986;4.662;2022-12-15T03:36:30;101995.13;;;-4.96;100.00
38620;BME280;24376;51.986;4.662;2022-12-15T03:38:55;101996.38;;;-4.92;100.00
38620;BME280;24376;51.986;4.662;2022-12-15T03:41:20;101989.75;;;-4.90;100.00
38620;BME280;24376;51.986;4.662;2022-12-15T03:43:45;101991.56;;;-4.89;100.00
38620;BME280;24376;51.986;4.662;2022-12-15T03:46:11;101982.84;;;-4.91;100.00
38620;BME280;24376;51.986;4.662;2022-12-15T03:48:36;101991.31;;;-4.84;100.00
38620;BME280;24376;51.986;4.662;2022-12-15T03:51:01;102001.59;;;-4.75;100.00
38620;BME280;24376;51.986;4.662;2022-12-15T03:53:26;102004.16;;;-4.75;100.00
38620;BME280;24376;51.986;4.662;2022-12-15T03:55:51;101999.88;;;-4.83;100.00
38620;BME280;24376;51.986;4.662;2022-12-15T03:58:17;101996.81;;;-4.88;100.00
38620;BME280;24376;51.986;4.662;2022-12-15T04:00:42;101995.28;;;-4.94;100.00
38620;BME280;24376;51.986;4.662;2022-12-15T04:03:08;101997.84;;;-4.94;100.00
38620;BME280;24376;51.986;4.662;2022-12-15T04:05:33;101998.19;;;-4.91;100.00
38620;BME280;24376;51.986;4.662;2022-12-15T04:07:59;102004.63;;;-4.70;100.00
38620;BME280;24376;51.986;4.662;2022-12-15T04:10:25;102007.34;;;-4.69;100.00
38620;BME280;24376;51.986;4.662;2022-12-15T04:12:57;102000.22;;;-4.80;100.00
38620;BME280;24376;51.986;4.662;2022-12-15T04:15:23;101988.59;;;-4.85;100.00
38620;BME280;24376;51.986;4.662;2022-12-15T04:17:48;101989.75;;;-4.90;100.00
38620;BME280;24376;51.986;4.662;2022-12-15T04:20:13;101995.28;;;-4.94;100.00
38620;BME280;24376;51.986;4.662;2022-12-15T04:22:39;101987.31;;;-4.97;100.00
38620;BME280;24376;51.986;4.662;2022-12-15T04:25:05;101987.47;;;-4.96;100.00
38620;BME280;24376;51.986;4.662;2022-12-15T04:27:50;101983.91;;;-5.05;100.00
38620;BME280;24376;51.986;4.662;2022-12-15T04:30:34;101986.31;;;-5.06;100.00
38620;BME280;24376;51.986;4.662;2022-12-15T04:33:18;101976.50;;;-5.11;100.00
38620;BME280;24376;51.986;4.662;2022-12-15T04:36:02;101977.59;;;-5.09;100.00
38620;BME280;24376;51.986;4.662;2022-12-15T04:38:46;101980.91;;;-5.10;100.00
38620;BME280;24376;51.986;4.662;2022-12-15T04:41:30;101977.59;;;-5.09;100.00
38620;BME280;24376;51.986;4.662;2022-12-15T04:44:15;101967.38;;;-5.09;100.00
38620;BME280;24376;51.986;4.662;2022-12-15T04:46:59;101971.91;;;-5.06;100.00
38620;BME280;24376;51.986;4.662;2022-12-15T04:49:43;101971.34;;;-5.03;100.00
38620;BME280;24376;51.986;4.662;2022-12-15T04:52:27;101979.91;;;-5.03;100.00
38620;BME280;24376;51.986;4.662;2022-12-15T04:55:11;101978.56;;;-4.99;100.00
38620;BME280;24376;51.986;4.662;2022-12-15T04:57:54;101975.44;;;-4.97;100.00
38620;BME280;24376;51.986;4.662;2022-12-15T05:00:38;101979.47;;;-4.99;100.00
38620;BME280;24376;51.986;4.662;2022-12-15T05:03:22;101977.75;;;-4.91;100.00
38620;BME280;24376;51.986;4.662;2022-12-15T05:06:06;101982.00;;;-4.83;100.00
38620;BME280;24376;51.986;4.662;2022-12-15T05:08:50;101991.44;;;-4.66;100.00
38620;BME280;24376;51.986;4.662;2022-12-15T05:11:34;102002.69;;;-4.64;100.00
38620;BME280;24376;51.986;4.662;2022-12-15T05:14:18;101993.72;;;-4.61;100.00
38620;BME280;24376;51.986;4.662;2022-12-15T05:17:02;101998.03;;;-4.68;100.00
38620;BME280;24376;51.986;4.662;2022-12-15T05:19:46;101994.59;;;-4.69;100.00
38620;BME280;24376;51.986;4.662;2022-12-15T05:22:30;101992.84;;;-4.77;100.00
38620;BME280;24376;51.986;4.662;2022-12-15T05:25:14;101985.94;;;-4.78;100.00
38620;BME280;24376;51.986;4.662;2022-12-15T05:27:58;101988.72;;;-4.68;100.00
38620;BME280;24376;51.986;4.662;2022-12-15T05:30:41;102001.16;;;-4.71;100.00
38620;BME280;24376;51.986;4.662;2022-12-15T05:33:25;101997.00;;;-4.86;100.00
38620;BME280;24376;51.986;4.662;2022-12-15T05:35:51;101988.53;;;-4.94;100.00
38620;BME280;24376;51.986;4.662;2022-12-15T05:38:16;101984.09;;;-5.03;100.00
38620;BME280;24376;51.986;4.662;2022-12-15T05:40:42;101985.16;;;-5.01;100.00
38620;BME280;24376;51.986;4.662;2022-12-15T05:43:07;101979.06;;;-5.11;100.00
38620;BME280;24376;51.986;4.662;2022-12-15T05:45:33;101976.06;;;-5.15;100.00
38620;BME280;24376;51.986;4.662;2022-12-15T05:47:58;101977.75;;;-5.23;100.00
38620;BME280;24376;51.986;4.662;2022-12-15T05:50:23;101985.38;;;-5.16;100.00
38620;BME280;24376;51.986;4.662;2022-12-15T05:52:48;101994.53;;;-4.93;100.00
38620;BME280;24376;51.986;4.662;2022-12-15T05:55:14;102000.97;;;-4.97;100.00
38620;BME280;24376;51.986;4.662;2022-12-15T05:57:40;102001.53;;;-4.99;100.00
38620;BME280;24376;51.986;4.662;2022-12-15T06:00:05;102005.84;;;-5.07;100.00
38620;BME280;24376;51.986;4.662;2022-12-15T06:02:30;102018.47;;;-5.09;100.00
38620;BME280;24376;51.986;4.662;2022-12-15T06:04:56;102012.19;;;-5.03;100.00
38620;BME280;24376;51.986;4.662;2022-12-15T06:07:21;102013.81;;;-4.88;100.00
38620;BME280;24376;51.986;4.662;2022-12-15T06:09:46;102027.56;;;-4.79;100.00
38620;BME280;24376;51.986;4.662;2022-12-15T06:12:11;102039.31;;;-4.57;100.00
38620;BME280;24376;51.986;4.662;2022-12-15T06:14:36;102053.78;;;-4.48;100.00
38620;BME280;24376;51.986;4.662;2022-12-15T06:17:02;102056.22;;;-4.41;100.00
38620;BME280;24376;51.986;4.662;2022-12-15T06:19:27;102062.84;;;-4.43;100.00
38620;BME280;24376;51.986;4.662;2022-12-15T06:21:52;102070.66;;;-4.42;100.00
38620;BME280;24376;51.986;4.662;2022-12-15T06:24:18;102065.66;;;-4.49;100.00
38620;BME280;24376;51.986;4.662;2022-12-15T06:26:43;102068.19;;;-4.58;100.00
38620;BME280;24376;51.986;4.662;2022-12-15T06:29:09;102053.25;;;-4.62;100.00
38620;BME280;24376;51.986;4.662;2022-12-15T06:31:35;102053.66;;;-4.66;100.00
38620;BME280;24376;51.986;4.662;2022-12-15T06:34:02;102049.34;;;-4.58;100.00
38620;BME280;24376;51.986;4.662;2022-12-15T06:36:28;102056.44;;;-4.56;100.00
38620;BME280;24376;51.986;4.662;2022-12-15T06:38:56;102059.25;;;-4.45;100.00
38620;BME280;24376;51.986;4.662;2022-12-15T06:41:22;102073.69;;;-4.21;100.00
38620;BME280;24376;51.986;4.662;2022-12-15T06:43:47;102084.69;;;-4.14;100.00
38620;BME280;24376;51.986;4.662;2022-12-15T06:46:13;102085.88;;;-4.19;100.00
38620;BME280;24376;51.986;4.662;2022-12-15T06:48:38;102080.09;;;-4.25;100.00
38620;BME280;24376;51.986;4.662;2022-12-15T06:51:04;102080.81;;;-4.35;100.00
38620;BME280;24376;51.986;4.662;2022-12-15T06:53:30;102071.28;;;-4.44;100.00
38620;BME280;24376;51.986;4.662;2022-12-15T06:56:02;102069.66;;;-4.60;100.00
38620;BME280;24376;51.986;4.662;2022-12-15T06:58:27;102061.19;;;-4.67;100.00
38620;BME280;24376;51.986;4.662;2022-12-15T07:00:53;102054.19;;;-4.77;100.00
38620;BME280;24376;51.986;4.662;2022-12-15T07:03:18;102050.22;;;-4.82;100.00
38620;BME280;24376;51.986;4.662;2022-12-15T07:05:44;102052.13;;;-4.88;100.00
38620;BME280;24376;51.986;4.662;2022-12-15T07:08:09;102045.22;;;-4.89;100.00
38620;BME280;24376;51.986;4.662;2022-12-15T07:10:36;102050.72;;;-4.93;100.00
38620;BME280;24376;51.986;4.662;2022-12-15T07:13:02;102044.16;;;-4.91;100.00
38620;BME280;24376;51.986;4.662;2022-12-15T07:15:27;102050.66;;;-4.86;100.00
38620;BME280;24376;51.986;4.662;2022-12-15T07:17:53;102050.66;;;-4.86;100.00
38620;BME280;24376;51.986;4.662;2022-12-15T07:20:18;102059.03;;;-4.87;100.00
38620;BME280;24376;51.986;4.662;2022-12-15T07:22:43;102053.47;;;-4.92;100.00
38620;BME280;24376;51.986;4.662;2022-12-15T07:25:13;102047.00;;;-4.88;100.00
38620;BME280;24376;51.986;4.662;2022-12-15T07:27:38;102050.31;;;-4.89;100.00
38620;BME280;24376;51.986;4.662;2022-12-15T07:30:04;102044.97;;;-4.84;100.00
38620;BME280;24376;51.986;4.662;2022-12-15T07:32:29;102053.91;;;-4.71;100.00
38620;BME280;24376;51.986;4.662;2022-12-15T07:34:55;102063.88;;;-4.66;100.00
38620;BME280;24376;51.986;4.662;2022-12-15T07:37:20;102056.63;;;-4.70;100.00
38620;BME280;24376;51.986;4.662;2022-12-15T07:39:45;102057.81;;;-4.75;100.00
38620;BME280;24376;51.986;4.662;2022-12-15T07:42:10;102068.94;;;-4.74;100.00
38620;BME280;24376;51.986;4.662;2022-12-15T07:44:35;102069.19;;;-4.80;100.00
38620;BME280;24376;51.986;4.662;2022-12-15T07:47:01;102080.81;;;-4.75;100.00
38620;BME280;24376;51.986;4.662;2022-12-15T07:49:26;102068.69;;;-4.69;100.00
38620;BME280;24376;51.986;4.662;2022-12-15T07:51:51;102077.66;;;-4.57;100.00
38620;BME280;24376;51.986;4.662;2022-12-15T07:54:16;102074.25;;;-4.48;100.00
38620;BME280;24376;51.986;4.662;2022-12-15T07:56:41;102073.94;;;-4.51;100.00
38620;BME280;24376;51.986;4.662;2022-12-15T07:59:07;102082.31;;;-4.52;100.00
38620;BME280;24376;51.986;4.662;2022-12-15T08:01:33;102072.94;;;-4.61;100.00
38620;BME280;24376;51.986;4.662;2022-12-15T08:03:59;102070.25;;;-4.62;100.00
38620;BME280;24376;51.986;4.662;2022-12-15T08:06:24;102069.50;;;-4.61;100.00
38620;BME280;24376;51.986;4.662;2022-12-15T08:08:49;102075.41;;;-4.53;100.00
38620;BME280;24376;51.986;4.662;2022-12-15T08:11:14;102085.75;;;-4.36;100.00
38620;BME280;24376;51.986;4.662;2022-12-15T08:13:40;102084.94;;;-4.28;100.00
38620;BME280;24376;51.986;4.662;2022-12-15T08:16:06;102088.28;;;-4.20;100.00
38620;BME280;24376;51.986;4.662;2022-12-15T08:18:31;102093.53;;;-4.19;100.00
38620;BME280;24376;51.986;4.662;2022-12-15T08:21:03;102091.19;;;-4.09;100.00
38620;BME280;24376;51.986;4.662;2022-12-15T08:23:29;102093.22;;;-3.97;100.00
38620;BME280;24376;51.986;4.662;2022-12-15T08:26:00;102093.53;;;-3.94;100.00
38620;BME280;24376;51.986;4.662;2022-12-15T08:28:25;102090.47;;;-3.75;100.00
38620;BME280;24376;51.986;4.662;2022-12-15T08:30:50;102094.56;;;-3.68;100.00
38620;BME280;24376;51.986;4.662;2022-12-15T08:33:15;102105.84;;;-3.66;100.00
38620;BME280;24376;51.986;4.662;2022-12-15T08:35:40;102095.94;;;-3.63;100.00
38620;BME280;24376;51.986;4.662;2022-12-15T08:38:06;102102.88;;;-3.62;100.00
38620;BME280;24376;51.986;4.662;2022-12-15T08:40:31;102088.88;;;-3.57;100.00
38620;BME280;24376;51.986;4.662;2022-12-15T08:42:56;102098.91;;;-3.34;100.00
38620;BME280;24376;51.986;4.662;2022-12-15T08:45:21;102111.47;;;-3.11;100.00
38620;BME280;24376;51.986;4.662;2022-12-15T08:47:46;102101.41;;;-3.01;100.00
38620;BME280;24376;51.986;4.662;2022-12-15T08:50:12;102110.75;;;-2.92;100.00
38620;BME280;24376;51.986;4.662;2022-12-15T08:52:37;102108.03;;;-2.85;100.00
38620;BME280;24376;51.986;4.662;2022-12-15T08:55:06;102108.66;;;-2.79;100.00
38620;BME280;24376;51.986;4.662;2022-12-15T08:57:31;102107.28;;;-2.84;100.00
38620;BME280;24376;51.986;4.662;2022-12-15T08:59:56;102103.22;;;-2.82;100.00
38620;BME280;24376;51.986;4.662;2022-12-15T09:02:22;102110.50;;;-2.78;100.00
38620;BME280;24376;51.986;4.662;2022-12-15T09:04:47;102109.25;;;-2.82;100.00
38620;BME280;24376;51.986;4.662;2022-12-15T09:07:14;102110.94;;;-2.82;100.00
38620;BME280;24376;51.986;4.662;2022-12-15T09:09:39;102108.81;;;-2.78;100.00
38620;BME280;24376;51.986;4.662;2022-12-15T09:12:05;102109.13;;;-2.66;100.00
38620;BME280;24376;51.986;4.662;2022-12-15T09:14:30;102107.94;;;-2.61;100.00
38620;BME280;24376;51.986;4.662;2022-12-15T09:16:55;102106.56;;;-2.49;100.00
38620;BME280;24376;51.986;4.662;2022-12-15T09:19:20;102110.47;;;-2.44;100.00
38620;BME280;24376;51.986;4.662;2022-12-15T09:21:45;102111.50;;;-2.33;100.00
38620;BME280;24376;51.986;4.662;2022-12-15T09:24:12;102117.41;;;-2.25;100.00
38620;BME280;24376;51.986;4.662;2022-12-15T09:26:38;102121.63;;;-2.17;100.00
38620;BME280;24376;51.986;4.662;2022-12-15T09:29:03;102132.03;;;-2.07;100.00
38620;BME280;24376;51.986;4.662;2022-12-15T09:31:29;102138.63;;;-1.92;100.00
38620;BME280;24376;51.986;4.662;2022-12-15T09:33:55;102133.47;;;-1.83;100.00
38620;BME280;24376;51.986;4.662;2022-12-15T09:36:21;102134.81;;;-1.78;100.00
38620;BME280;24376;51.986;4.662;2022-12-15T09:38:47;102140.69;;;-1.70;100.00
38620;BME280;24376;51.986;4.662;2022-12-15T09:41:17;102129.66;;;-1.69;100.00
38620;BME280;24376;51.986;4.662;2022-12-15T09:43:52;102138.69;;;-1.55;100.00
38620;BME280;24376;51.986;4.662;2022-12-15T09:49:17;102148.84;;;-1.29;100.00
38620;BME280;24376;51.986;4.662;2022-12-15T09:51:52;102158.13;;;-1.13;100.00
38620;BME280;24376;51.986;4.662;2022-12-15T09:54:20;102163.16;;;-0.87;100.00
38620;BME280;24376;51.986;4.662;2022-12-15T09:56:52;102169.00;;;-0.60;100.00
38620;BME280;24376;51.986;4.662;2022-12-15T09:59:25;102172.56;;;-0.49;100.00
38620;BME280;24376;51.986;4.662;2022-12-15T10:01:58;102183.63;;;-0.32;100.00
38620;BME280;24376;51.986;4.662;2022-12-15T10:07:00;102200.13;;;-0.11;100.00
38620;BME280;24376;51.986;4.662;2022-12-15T10:09:29;102202.91;;;0.01;100.00
38620;BME280;24376;51.986;4.662;2022-12-15T10:11:59;102202.94;;;0.11;100.00
38620;BME280;24376;51.986;4.662;2022-12-15T10:16:58;102199.03;;;0.25;100.00
38620;BME280;24376;51.986;4.662;2022-12-15T10:19:47;102199.47;;;0.30;100.00
38620;BME280;24376;51.986;4.662;2022-12-15T10:22:15;102198.09;;;0.43;100.00
38620;BME280;24376;51.986;4.662;2022-12-15T10:24:42;102190.41;;;0.53;100.00
38620;BME280;24376;51.986;4.662;2022-12-15T10:32:26;102179.16;;;0.82;100.00
38620;BME280;24376;51.986;4.662;2022-12-15T10:34:53;102179.16;;;0.82;100.00
38620;BME280;24376;51.986;4.662;2022-12-15T10:37:19;102175.66;;;0.82;100.00
38620;BME280;24376;51.986;4.662;2022-12-15T10:39:45;102166.22;;;0.72;100.00
38620;BME280;24376;51.986;4.662;2022-12-15T10:42:15;102160.78;;;0.69;100.00
38620;BME280;24376;51.986;4.662;2022-12-15T10:44:42;102163.38;;;0.69;100.00
38620;BME280;24376;51.986;4.662;2022-12-15T10:47:08;102153.59;;;0.65;100.00
38620;BME280;24376;51.986;4.662;2022-12-15T10:49:34;102158.09;;;0.67;100.00
38620;BME280;24376;51.986;4.662;2022-12-15T10:51:59;102158.63;;;0.73;100.00
38620;BME280;24376;51.986;4.662;2022-12-15T10:54:34;102175.13;;;0.86;100.00
38620;BME280;24376;51.986;4.662;2022-12-15T10:57:02;102166.16;;;1.11;100.00
38620;BME280;24376;51.986;4.662;2022-12-15T10:59:38;102177.91;;;1.38;100.00
38620;BME280;24376;51.986;4.662;2022-12-15T11:04:57;102168.94;;;1.85;100.00
38620;BME280;24376;51.986;4.662;2022-12-15T11:07:22;102151.16;;;2.21;100.00
38620;BME280;24376;51.986;4.662;2022-12-15T11:09:50;102127.63;;;2.50;100.00
38620;BME280;24376;51.986;4.662;2022-12-15T11:12:23;102102.56;;;2.82;100.00
38620;BME280;24376;51.986;4.662;2022-12-15T11:15:54;102087.28;;;3.19;100.00
38620;BME280;24376;51.986;4.662;2022-12-15T11:17:58;102066.47;;;3.29;100.00
38620;BME280;24376;51.986;4.662;2022-12-15T11:20:36;102031.47;;;3.34;100.00
38620;BME280;24376;51.986;4.662;2022-12-15T11:25:32;101986.34;;;3.42;100.00
38620;BME280;24376;51.986;4.662;2022-12-15T11:28:00;101972.25;;;3.39;100.00
38620;BME280;24376;51.986;4.662;2022-12-15T11:30:28;101940.31;;;3.27;100.00
38620;BME280;24376;51.986;4.662;2022-12-15T11:32:57;101925.59;;;3.14;100.00
38620;BME280;24376;51.986;4.662;2022-12-15T11:38:11;101903.38;;;3.29;100.00
38620;BME280;24376;51.986;4.662;2022-12-15T11:43:33;101892.72;;;3.73;100.00
38620;BME280;24376;51.986;4.662;2022-12-15T11:51:12;101839.88;;;4.34;100.00
38620;BME280;24376;51.986;4.662;2022-12-15T11:56:30;101806.91;;;4.71;100.00
38620;BME280;24376;51.986;4.662;2022-12-15T12:06:49;101790.69;;;4.09;100.00
38620;BME280;24376;51.986;4.662;2022-12-15T12:09:34;101789.31;;;4.14;100.00
38620;BME280;24376;51.986;4.662;2022-12-15T12:12:08;101780.00;;;4.05;100.00
38620;BME280;24376;51.986;4.662;2022-12-15T12:17:03;101779.63;;;3.73;100.00
38620;BME280;24376;51.986;4.662;2022-12-15T12:19:51;101783.75;;;3.58;100.00
38620;BME280;24376;51.986;4.662;2022-12-15T12:22:20;101785.06;;;3.40;100.00
38620;BME280;24376;51.986;4.662;2022-12-15T12:24:47;101794.88;;;3.32;100.00
38620;BME280;24376;51.986;4.662;2022-12-15T12:29:42;101810.16;;;3.41;100.00
38620;BME280;24376;51.986;4.662;2022-12-15T12:32:10;101817.44;;;3.46;100.00
38620;BME280;24376;51.986;4.662;2022-12-15T12:34:50;101820.47;;;3.53;100.00
38620;BME280;24376;51.986;4.662;2022-12-15T12:37:26;101814.34;;;3.64;100.00
38620;BME280;24376;51.986;4.662;2022-12-15T12:39:55;101820.84;;;3.70;100.00
38620;BME280;24376;51.986;4.662;2022-12-15T12:42:39;101811.94;;;3.79;100.00
38620;BME280;24376;51.986;4.662;2022-12-15T12:45:09;101816.72;;;3.86;100.00
38620;BME280;24376;51.986;4.662;2022-12-15T12:47:36;101814.47;;;3.90;100.00
38620;BME280;24376;51.986;4.662;2022-12-15T12:50:24;101810.00;;;4.01;100.00
38620;BME280;24376;51.986;4.662;2022-12-15T12:52:49;101808.16;;;4.12;100.00
38620;BME280;24376;51.986;4.662;2022-12-15T12:57:41;101801.75;;;4.07;100.00
38620;BME280;24376;51.986;4.662;2022-12-15T13:07:52;101795.31;;;4.26;100.00
38620;BME280;24376;51.986;4.662;2022-12-15T13:10:19;101788.03;;;4.34;100.00
38620;BME280;24376;51.986;4.662;2022-12-15T13:12:54;101798.78;;;4.40;100.00
38620;BME280;24376;51.986;4.662;2022-12-15T13:17:50;101774.47;;;4.38;100.00
38620;BME280;24376;51.986;4.662;2022-12-15T13:22:43;101767.69;;;4.40;100.00
38620;BME280;24376;51.986;4.662;2022-12-15T13:25:25;101771.28;;;4.42;100.00
38620;BME280;24376;51.986;4.662;2022-12-15T13:27:51;101775.38;;;4.39;100.00
38620;BME280;24376;51.986;4.662;2022-12-15T13:30:17;101780.25;;;4.34;100.00
38620;BME280;24376;51.986;4.662;2022-12-15T13:32:46;101788.50;;;4.28;100.00
38620;BME280;24376;51.986;4.662;2022-12-15T13:35:19;101783.63;;;4.20;100.00
38620;BME280;24376;51.986;4.662;2022-12-15T13:37:52;101781.44;;;4.13;100.00
38620;BME280;24376;51.986;4.662;2022-12-15T13:42:46;101781.53;;;4.14;100.00
38620;BME280;24376;51.986;4.662;2022-12-15T13:45:23;101785.19;;;4.05;100.00
38620;BME280;24376;51.986;4.662;2022-12-15T13:47:53;101785.00;;;4.02;100.00
38620;BME280;24376;51.986;4.662;2022-12-15T13:50:28;101786.56;;;3.99;100.00
38620;BME280;24376;51.986;4.662;2022-12-15T13:52:54;101788.16;;;3.97;100.00
38620;BME280;24376;51.986;4.662;2022-12-15T13:55:24;101784.28;;;3.91;100.00
38620;BME280;24376;51.986;4.662;2022-12-15T13:57:53;101788.34;;;3.87;100.00
38620;BME280;24376;51.986;4.662;2022-12-15T14:00:19;101793.09;;;3.81;100.00
38620;BME280;24376;51.986;4.662;2022-12-15T14:02:44;101793.56;;;3.76;100.00
38620;BME280;24376;51.986;4.662;2022-12-15T14:10:16;101808.69;;;3.69;100.00
38620;BME280;24376;51.986;4.662;2022-12-15T14:12:42;101811.88;;;3.65;100.00
38620;BME280;24376;51.986;4.662;2022-12-15T14:15:14;101818.44;;;3.60;100.00
38620;BME280;24376;51.986;4.662;2022-12-15T14:17:40;101816.75;;;3.61;100.00
38620;BME280;24376;51.986;4.662;2022-12-15T14:20:16;101824.84;;;3.65;100.00
38620;BME280;24376;51.986;4.662;2022-12-15T14:22:43;101817.06;;;3.65;100.00
38620;BME280;24376;51.986;4.662;2022-12-15T14:25:27;101817.63;;;3.61;100.00
38620;BME280;24376;51.986;4.662;2022-12-15T14:27:56;101824.38;;;3.59;100.00
38620;BME280;24376;51.986;4.662;2022-12-15T14:32:48;101828.41;;;3.42;100.00
38620;BME280;24376;51.986;4.662;2022-12-15T14:35:16;101820.97;;;3.35;100.00
38620;BME280;24376;51.986;4.662;2022-12-15T14:37:42;101825.28;;;3.23;100.00
38620;BME280;24376;51.986;4.662;2022-12-15T14:40:11;101832.41;;;3.14;100.00
38620;BME280;24376;51.986;4.662;2022-12-15T14:42:37;101827.13;;;3.01;100.00